Time;durP1;ratioP1;P1;durP2;ratioP2;P2;SDS_P1;SDS_P2;PMS_P1;PMS_P2;Temp;Humidity;BMP_temperature;BMP_pressure;BME280_temperature;BME280_humidity;BME280_pressure;Samples;Min_cycle;Max_cycle;Signal;HPM_P1;HPM_P2
2020/12/16 00:00:28;;;;;;;6.93;4.80;;;19.40;52.90;;;;;;5087650;28;20044;-45
2020/12/16 00:02:55;;;;;;;7.65;4.43;;;19.40;52.90;;;;;;5089389;28;20055;-47
2020/12/16 00:05:21;;;;;;;6.95;3.83;;;19.40;52.90;;;;;;5087509;28;20048;-44
2020/12/16 00:07:48;;;;;;;7.03;4.40;;;19.40;53.00;;;;;;5069058;28;20519;-46
2020/12/16 00:10:15;;;;;;;8.77;4.53;;;19.40;52.90;;;;;;5086846;28;20040;-44
2020/12/16 00:12:42;;;;;;;4.88;3.88;;;19.40;52.90;;;;;;5087395;28;20069;-43
2020/12/16 00:15:09;;;;;;;6.57;3.25;;;19.40;52.90;;;;;;5088126;28;20059;-49
2020/12/16 00:17:37;;;;;;;7.97;3.88;;;19.40;52.90;;;;;;5087880;28;20087;-42
2020/12/16 00:20:04;;;;;;;8.10;3.65;;;19.40;52.90;;;;;;5084868;28;20075;-45
2020/12/16 00:22:35;;;;;;;6.13;3.78;;;19.40;52.90;;;;;;5087420;28;20051;-45
2020/12/16 00:25:01;;;;;;;4.55;3.30;;;19.40;52.90;;;;;;5086760;28;20136;-45
2020/12/16 00:27:28;;;;;;;5.93;3.78;;;19.30;52.80;;;;;;5085673;28;20082;-43
2020/12/16 00:29:54;;;;;;;7.03;3.40;;;19.40;52.90;;;;;;5089079;28;20093;-46
2020/12/16 00:32:21;;;;;;;6.68;2.58;;;19.40;52.90;;;;;;5086325;28;20523;-42
2020/12/16 00:34:48;;;;;;;6.80;3.38;;;19.30;52.80;;;;;;5087052;28;20121;-48
2020/12/16 00:37:15;;;;;;;5.80;3.53;;;19.40;52.90;;;;;;5086993;28;20126;-42
2020/12/16 00:39:41;;;;;;;4.97;3.10;;;19.40;52.90;;;;;;5086995;28;20048;-42
2020/12/16 00:42:09;;;;;;;4.97;3.03;;;19.30;52.90;;;;;;5088432;28;20076;-44
2020/12/16 00:44:35;;;;;;;7.30;4.00;;;19.40;52.90;;;;;;5086459;28;20125;-42
2020/12/16 00:47:02;;;;;;;6.03;4.00;;;19.30;52.80;;;;;;5085634;28;20126;-45
2020/12/16 00:49:28;;;;;;;4.55;2.42;;;19.30;52.90;;;;;;5087134;28;20044;-43
2020/12/16 00:51:56;;;;;;;6.68;3.42;;;19.30;52.80;;;;;;5085831;28;20040;-48
2020/12/16 00:54:22;;;;;;;5.30;2.85;;;19.30;52.90;;;;;;5084836;28;20047;-46
2020/12/16 00:56:49;;;;;;;4.22;3.05;;;19.30;52.90;;;;;;5086581;28;20404;-48
2020/12/16 00:59:15;;;;;;;5.63;3.13;;;19.30;52.90;;;;;;5084258;28;20051;-46
2020/12/16 01:01:43;;;;;;;5.38;3.17;;;19.30;52.80;;;;;;5085596;28;20060;-44
2020/12/16 01:04:09;;;;;;;6.43;2.72;;;19.30;52.80;;;;;;5085651;28;20135;-45
2020/12/16 01:06:37;;;;;;;6.20;2.38;;;19.30;52.90;;;;;;5086822;28;20801;-42
2020/12/16 01:09:06;;;;;;;7.80;2.85;;;19.30;52.90;;;;;;5086422;28;20048;-43
2020/12/16 01:11:35;;;;;;;5.97;3.28;;;19.30;52.80;;;;;;5085247;28;20700;-43
2020/12/16 01:14:04;;;;;;;6.03;2.88;;;19.30;52.80;;;;;;5085159;28;20147;-44
2020/12/16 01:16:34;;;;;;;4.22;2.58;;;19.30;52.90;;;;;;5085316;28;20197;-43
2020/12/16 01:19:05;;;;;;;4.45;2.05;;;19.30;52.90;;;;;;5085673;28;20090;-42
2020/12/16 01:21:35;;;;;;;5.18;2.40;;;19.30;52.80;;;;;;5084795;28;20067;-44
2020/12/16 01:24:03;;;;;;;3.17;2.45;;;19.30;52.80;;;;;;5088260;28;20514;-45
2020/12/16 01:26:37;;;;;;;3.85;2.13;;;19.30;52.80;;;;;;5079537;28;20045;-45
2020/12/16 01:29:05;;;;;;;6.38;3.38;;;19.30;52.80;;;;;;5097486;28;20044;-49
2020/12/16 01:31:38;;;;;;;6.68;2.40;;;19.30;52.80;;;;;;5085290;28;20082;-42
2020/12/16 01:34:05;;;;;;;3.92;2.30;;;19.30;52.80;;;;;;5084811;28;20543;-41
2020/12/16 01:36:44;;;;;;;3.28;2.28;;;19.30;52.80;;;;;;5085200;28;20503;-42
2020/12/16 01:39:12;;;;;;;3.08;2.13;;;19.30;52.80;;;;;;5083506;28;20047;-55
2020/12/16 01:41:42;;;;;;;3.97;2.83;;;19.30;52.90;;;;;;5080090;28;20513;-51
2020/12/16 01:44:11;;;;;;;5.75;2.28;;;19.30;52.90;;;;;;5084284;28;20519;-44
2020/12/16 01:46:45;;;;;;;7.45;2.85;;;19.30;52.90;;;;;;5079655;28;20040;-48
2020/12/16 01:49:12;;;;;;;4.43;2.78;;;19.30;52.80;;;;;;5082488;28;20044;-43
2020/12/16 01:51:40;;;;;;;10.07;2.28;;;19.30;52.90;;;;;;5086406;28;20553;-41
2020/12/16 01:54:08;;;;;;;2.30;1.77;;;19.30;52.90;;;;;;5091328;28;20040;-49
2020/12/16 01:56:38;;;;;;;3.53;2.40;;;19.30;52.90;;;;;;5089033;28;20131;-44
2020/12/16 01:59:17;;;;;;;4.88;1.92;;;19.30;52.90;;;;;;5087932;28;20511;-46
2020/12/16 02:01:51;;;;;;;;;;;19.30;52.90;;;;;;5085076;28;20091;-45
2020/12/16 02:04:22;;;;;;;2.75;1.90;;;19.20;52.80;;;;;;5089090;28;20030;-44
2020/12/16 02:06:50;;;;;;;7.50;1.90;;;19.20;53.00;;;;;;5088588;28;20396;-47
2020/12/16 02:09:20;;;;;;;7.05;2.47;;;19.20;53.00;;;;;;5088239;28;20093;-47
2020/12/16 02:11:57;;;;;;;6.28;2.47;;;19.20;53.00;;;;;;5087009;28;20519;-56
2020/12/16 02:14:28;;;;;;;4.40;2.55;;;19.20;52.80;;;;;;5087342;28;20073;-53
2020/12/16 02:16:55;;;;;;;2.97;2.65;;;19.20;52.80;;;;;;5087075;28;20143;-46
2020/12/16 02:19:26;;;;;;;2.88;2.13;;;19.30;52.80;;;;;;5085491;28;20052;-47
2020/12/16 02:22:05;;;;;;;3.80;1.83;;;19.20;52.80;;;;;;5087377;28;20055;-53
2020/12/16 02:24:32;;;;;;;2.80;1.58;;;19.20;52.80;;;;;;5086729;28;20556;-51
2020/12/16 02:27:01;;;;;;;7.82;1.45;;;19.20;52.80;;;;;;5087368;28;20134;-47
2020/12/16 02:29:29;;;;;;;6.60;2.33;;;19.20;52.80;;;;;;5085818;28;20094;-44
2020/12/16 02:32:00;;;;;;;8.73;2.33;;;19.20;52.80;;;;;;5087038;28;20044;-47
2020/12/16 02:34:27;;;;;;;3.00;2.08;;;19.20;52.80;;;;;;5088476;28;20067;-48
2020/12/16 02:36:53;;;;;;;6.65;2.15;;;19.20;52.80;;;;;;5089553;28;20036;-46
2020/12/16 02:39:36;;;;;;;2.78;1.60;;;19.20;52.80;;;;;;5088207;28;20101;-45
2020/12/16 02:42:13;;;;;;;3.83;1.65;;;19.20;52.80;;;;;;5087927;28;20040;-48
2020/12/16 02:44:41;;;;;;;3.25;1.40;;;19.20;52.80;;;;;;5088370;28;20054;-45
2020/12/16 02:47:40;;;;;;;4.90;2.03;;;19.20;52.80;;;;;;5075540;28;20044;-46
2020/12/16 02:50:13;;;;;;;3.08;1.77;;;19.20;52.80;;;;;;5083527;28;20044;-48
2020/12/16 02:52:46;;;;;;;1.65;1.55;;;19.20;52.80;;;;;;5086541;28;20060;-46
2020/12/16 02:55:17;;;;;;;2.53;1.17;;;19.20;52.80;;;;;;5085630;28;20131;-49
2020/12/16 02:57:57;;;;;;;2.55;1.77;;;19.20;52.80;;;;;;5085392;28;20060;-46
2020/12/16 03:00:25;;;;;;;4.25;1.58;;;19.20;52.80;;;;;;5087174;28;20389;-49
2020/12/16 03:03:12;;;;;;;5.82;1.48;;;19.10;52.70;;;;;;5089197;28;20511;-49
2020/12/16 03:05:59;;;;;;;;;;;19.10;52.70;;;;;;5078275;28;20056;-49
2020/12/16 03:08:37;;;;;;;2.50;0.85;;;19.10;52.70;;;;;;5088762;28;20046;-49
2020/12/16 03:11:15;;;;;;;1.73;1.42;;;19.10;52.80;;;;;;5086071;28;20533;-46
2020/12/16 03:13:43;;;;;;;2.50;1.38;;;19.10;52.70;;;;;;5083041;28;20044;-47
2020/12/16 03:16:09;;;;;;;2.15;2.05;;;19.10;52.90;;;;;;5085214;28;20048;-49
2020/12/16 03:18:37;;;;;;;2.35;1.23;;;19.10;52.80;;;;;;5087085;28;20047;-49
2020/12/16 03:21:06;;;;;;;4.22;1.50;;;19.10;52.80;;;;;;5087166;28;20058;-50
2020/12/16 03:23:35;;;;;;;4.38;1.05;;;19.00;52.70;;;;;;5086201;28;20072;-50
2020/12/16 03:26:27;;;;;;;4.07;1.23;;;19.10;52.70;;;;;;5086421;28;20048;-49
2020/12/16 03:29:03;;;;;;;1.67;1.05;;;19.00;52.70;;;;;;5084386;28;20044;-47
2020/12/16 03:31:48;;;;;;;2.60;0.80;;;19.00;52.70;;;;;;5087364;28;20165;-46
2020/12/16 03:34:38;;;;;;;5.13;1.70;;;19.00;52.70;;;;;;5086218;28;20298;-46
2020/12/16 03:37:11;;;;;;;4.78;1.40;;;19.00;52.70;;;;;;5088292;28;20389;-52
2020/12/16 03:39:39;;;;;;;4.38;1.05;;;19.00;52.70;;;;;;5077240;28;20048;-50
2020/12/16 03:42:07;;;;;;;1.95;0.90;;;19.00;52.70;;;;;;5087829;28;20090;-47
2020/12/16 03:44:35;;;;;;;1.08;0.98;;;19.00;52.70;;;;;;5087831;28;20047;-45
2020/12/16 03:47:02;;;;;;;1.75;0.95;;;19.00;52.70;;;;;;5088677;28;20051;-47
2020/12/16 03:49:29;;;;;;;2.53;0.95;;;19.00;52.70;;;;;;5086573;28;20048;-46
2020/12/16 03:51:57;;;;;;;1.35;1.20;;;19.00;52.70;;;;;;5087658;28;20139;-44
2020/12/16 03:54:31;;;;;;;3.75;0.95;;;19.00;52.70;;;;;;5086996;28;20032;-45
2020/12/16 03:57:22;;;;;;;0.93;0.85;;;19.00;52.70;;;;;;5085128;28;20047;-46
2020/12/16 04:00:23;;;;;;;1.70;1.45;;;19.00;52.70;;;;;;5084000;28;20044;-45
2020/12/16 04:02:55;;;;;;;2.55;0.93;;;18.90;52.60;;;;;;5105279;28;20044;-46
2020/12/16 04:05:44;;;;;;;1.30;0.95;;;18.90;52.60;;;;;;5081375;28;20453;-45
2020/12/16 04:08:11;;;;;;;1.55;1.00;;;18.90;52.60;;;;;;5087231;28;20067;-46
2020/12/16 04:10:54;;;;;;;0.93;0.73;;;18.90;52.60;;;;;;5086754;28;20127;-48
2020/12/16 04:13:20;;;;;;;1.05;0.85;;;18.90;52.60;;;;;;5086420;28;20075;-46
2020/12/16 04:15:48;;;;;;;0.77;0.77;;;18.90;52.60;;;;;;5088647;28;20051;-47
2020/12/16 04:18:16;;;;;;;1.77;1.00;;;18.90;52.60;;;;;;5086783;28;20649;-47
2020/12/16 04:20:43;;;;;;;1.80;0.88;;;18.90;52.60;;;;;;5087210;28;20040;-48
2020/12/16 04:23:10;;;;;;;1.90;0.50;;;18.90;52.60;;;;;;5086672;28;20515;-45
2020/12/16 04:25:38;;;;;;;1.05;0.88;;;18.90;52.60;;;;;;5087431;28;20055;-52
2020/12/16 04:28:10;;;;;;;2.20;0.90;;;18.90;52.60;;;;;;5086219;28;20040;-47
2020/12/16 04:30:36;;;;;;;1.88;0.65;;;18.90;52.60;;;;;;5086951;28;20059;-49
2020/12/16 04:33:04;;;;;;;1.85;1.63;;;18.90;52.60;;;;;;5088088;28;20044;-48
2020/12/16 04:35:31;;;;;;;1.10;0.95;;;18.80;52.50;;;;;;5084327;28;20106;-45
2020/12/16 04:37:59;;;;;;;2.70;1.00;;;18.90;52.60;;;;;;5088330;28;20120;-45
2020/12/16 04:40:27;;;;;;;1.50;1.35;;;18.90;52.60;;;;;;5086234;28;20590;-49
2020/12/16 04:43:03;;;;;;;1.92;0.75;;;18.90;52.60;;;;;;5086235;28;20044;-48
2020/12/16 04:45:31;;;;;;;1.00;0.90;;;18.90;52.60;;;;;;5086097;28;20486;-46
2020/12/16 04:47:59;;;;;;;2.20;1.40;;;18.90;52.60;;;;;;5087663;28;20150;-49
2020/12/16 04:50:27;;;;;;;4.75;1.40;;;18.90;52.60;;;;;;5086089;28;20044;-45
2020/12/16 04:53:01;;;;;;;1.52;1.17;;;18.90;52.60;;;;;;5086438;28;20040;-46
2020/12/16 04:55:52;;;;;;;1.73;1.15;;;18.90;52.60;;;;;;5086092;28;20463;-49
2020/12/16 04:58:39;;;;;;;2.33;1.17;;;18.80;52.50;;;;;;5086288;28;20052;-45
2020/12/16 05:01:08;;;;;;;1.27;0.82;;;18.80;52.60;;;;;;5086306;28;20044;-47
2020/12/16 05:03:40;;;;;;;1.33;1.23;;;18.80;52.60;;;;;;5086026;28;20535;-47
2020/12/16 05:06:36;;;;;;;1.77;1.25;;;18.80;52.60;;;;;;5099987;28;20061;-46
2020/12/16 05:09:05;;;;;;;2.45;2.25;;;18.80;52.60;;;;;;5088594;28;20056;-46
2020/12/16 05:11:39;;;;;;;4.30;0.88;;;18.80;52.70;;;;;;5087610;28;20177;-45
2020/12/16 05:14:08;;;;;;;1.42;0.98;;;18.80;52.70;;;;;;5087148;28;20044;-46
2020/12/16 05:17:02;;;;;;;1.88;1.20;;;18.80;52.70;;;;;;5087232;28;20051;-46
2020/12/16 05:19:37;;;;;;;1.15;1.05;;;18.80;52.60;;;;;;5082846;28;20484;-49
2020/12/16 05:22:19;;;;;;;1.15;0.77;;;18.80;52.60;;;;;;5086978;28;20071;-48
2020/12/16 05:24:47;;;;;;;1.58;1.13;;;18.80;52.70;;;;;;5087268;28;20105;-46
2020/12/16 05:27:22;;;;;;;1.08;0.85;;;18.80;52.70;;;;;;5092112;28;20054;-47
2020/12/16 05:29:55;;;;;;;1.55;1.42;;;18.80;52.70;;;;;;5088012;28;20415;-48
2020/12/16 05:32:24;;;;;;;1.83;1.45;;;18.80;52.70;;;;;;5089677;28;20094;-46
2020/12/16 05:34:51;;;;;;;1.17;1.08;;;18.80;52.70;;;;;;5091374;28;20142;-48
2020/12/16 05:37:30;;;;;;;1.63;1.52;;;18.80;52.80;;;;;;5091563;28;20082;-48
2020/12/16 05:40:05;;;;;;;3.10;1.80;;;18.80;52.80;;;;;;5086492;28;20052;-45
2020/12/16 05:42:32;;;;;;;1.58;1.48;;;18.80;52.90;;;;;;5091275;28;20051;-46
2020/12/16 05:45:06;;;;;;;1.50;1.17;;;18.80;52.90;;;;;;5092155;28;20131;-45
2020/12/16 05:47:32;;;;;;;3.63;1.98;;;18.80;52.90;;;;;;5091233;28;20090;-49
2020/12/16 05:49:59;;;;;;;2.90;1.48;;;18.80;52.90;;;;;;5091147;28;20039;-50
2020/12/16 05:52:27;;;;;;;1.98;1.50;;;18.80;52.90;;;;;;5086483;28;20460;-50
2020/12/16 05:54:53;;;;;;;2.53;1.08;;;18.80;53.00;;;;;;5085477;28;20036;-47
2020/12/16 05:57:21;;;;;;;1.58;1.48;;;18.80;53.00;;;;;;5087975;28;20040;-46
2020/12/16 06:00:01;;;;;;;1.20;1.08;;;18.80;53.00;;;;;;5091578;28;20078;-46
2020/12/16 06:02:34;;;;;;;1.38;1.08;;;18.80;53.00;;;;;;5085054;28;20118;-46
2020/12/16 06:05:01;;;;;;;3.40;1.23;;;18.80;53.10;;;;;;5090583;28;20055;-48
2020/12/16 06:07:31;;;;;;;3.95;1.35;;;18.80;53.00;;;;;;5089632;28;20543;-49
2020/12/16 06:09:59;;;;;;;1.25;1.15;;;18.80;53.00;;;;;;5089124;28;20090;-46
2020/12/16 06:12:29;;;;;;;2.35;1.60;;;18.80;53.00;;;;;;5089995;28;20469;-49
2020/12/16 06:15:08;;;;;;;1.00;0.65;;;18.80;53.00;;;;;;5091265;28;20071;-46
2020/12/16 06:17:38;;;;;;;2.75;1.42;;;18.80;53.00;;;;;;5089474;28;20044;-48
2020/12/16 06:20:07;;;;;;;1.05;1.05;;;18.80;53.00;;;;;;5090385;28;20415;-49
2020/12/16 06:22:36;;;;;;;1.30;0.95;;;18.80;53.00;;;;;;5085751;28;20047;-50
2020/12/16 06:25:05;;;;;;;1.42;1.25;;;18.80;53.00;;;;;;5090147;28;20139;-45
2020/12/16 06:27:38;;;;;;;3.75;1.58;;;18.80;53.10;;;;;;5089212;28;20047;-48
2020/12/16 06:30:06;;;;;;;10.13;1.83;;;18.80;53.10;;;;;;5091195;28;20142;-46
2020/12/16 06:32:39;;;;;;;1.15;1.05;;;18.80;53.10;;;;;;5090546;28;20044;-46
2020/12/16 06:35:09;;;;;;;4.35;1.42;;;18.80;53.70;;;;;;5089363;28;20534;-50
2020/12/16 06:37:37;;;;;;;1.70;1.60;;;18.80;53.10;;;;;;5087961;28;20063;-47
2020/12/16 06:40:03;;;;;;;3.03;1.88;;;18.80;53.20;;;;;;5089745;28;20119;-45
2020/12/16 06:42:33;;;;;;;2.85;2.08;;;18.70;53.10;;;;;;5088953;28;20044;-49
2020/12/16 06:45:13;;;;;;;1.88;1.52;;;18.70;53.10;;;;;;5090768;28;20032;-46
2020/12/16 06:47:40;;;;;;;1.73;1.58;;;18.80;53.70;;;;;;5090309;28;20048;-45
2020/12/16 06:50:20;;;;;;;1.88;1.75;;;18.70;53.10;;;;;;5088562;28;20111;-45
2020/12/16 06:52:48;;;;;;;2.10;1.83;;;18.80;53.10;;;;;;5088483;28;20486;-48
2020/12/16 06:55:15;;;;;;;7.18;1.13;;;18.70;53.00;;;;;;5089615;28;20069;-47
2020/12/16 06:57:47;;;;;;;1.92;1.40;;;18.80;53.00;;;;;;5089242;28;20100;-46
2020/12/16 07:00:19;;;;;;;1.50;1.05;;;18.80;53.10;;;;;;5087115;28;20127;-47
2020/12/16 07:02:46;;;;;;;2.47;0.93;;;18.70;52.90;;;;;;5090232;28;20052;-50
2020/12/16 07:05:42;;;;;;;1.58;1.05;;;18.70;52.90;;;;;;5086560;28;20040;-50
2020/12/16 07:08:10;;;;;;;4.53;1.02;;;18.80;52.90;;;;;;5045350;28;20049;-48
2020/12/16 07:10:47;;;;;;;2.75;1.30;;;18.70;52.90;;;;;;5045711;28;20125;-51
2020/12/16 07:13:25;;;;;;;2.22;1.98;;;18.70;52.80;;;;;;5039982;28;20056;-48
2020/12/16 07:15:55;;;;;;;1.33;0.70;;;18.70;52.80;;;;;;5040180;28;20495;-45
2020/12/16 07:18:30;;;;;;;1.25;0.68;;;18.70;52.80;;;;;;5046971;28;20061;-46
2020/12/16 07:21:16;;;;;;;0.98;0.80;;;18.70;52.80;;;;;;5044795;28;20063;-45
2020/12/16 07:23:45;;;;;;;1.63;0.95;;;18.70;52.90;;;;;;5035920;28;20119;-45
2020/12/16 07:26:18;;;;;;;1.95;0.80;;;18.70;52.90;;;;;;5043762;28;20049;-49
2020/12/16 07:28:45;;;;;;;1.65;1.08;;;18.70;52.90;;;;;;5045709;28;20057;-48
2020/12/16 07:31:11;;;;;;;1.15;0.98;;;18.70;52.90;;;;;;5040858;28;20650;-46
2020/12/16 07:33:38;;;;;;;0.77;0.40;;;18.70;52.80;;;;;;5041981;28;20133;-45
2020/12/16 07:36:06;;;;;;;1.65;1.10;;;18.70;52.70;;;;;;5030029;28;20140;-45
2020/12/16 07:38:33;;;;;;;2.00;1.00;;;18.70;52.70;;;;;;5044867;28;20124;-45
2020/12/16 07:41:00;;;;;;;1.25;0.95;;;18.70;52.70;;;;;;5044653;28;20505;-46
2020/12/16 07:43:27;;;;;;;1.05;1.00;;;18.70;52.60;;;;;;5085189;28;20044;-46
2020/12/16 07:46:02;;;;;;;2.08;1.65;;;18.70;52.60;;;;;;5087942;28;20052;-51
2020/12/16 07:48:29;;;;;;;0.93;0.80;;;18.70;52.60;;;;;;5085651;28;24005;-49
2020/12/16 07:51:03;;;;;;;3.22;1.35;;;18.70;52.60;;;;;;5088991;28;20526;-46
2020/12/16 07:53:31;;;;;;;4.43;0.90;;;18.70;52.60;;;;;;5088731;28;20051;-45
2020/12/16 07:56:01;;;;;;;2.25;1.55;;;18.70;52.60;;;;;;5088062;28;20143;-46
2020/12/16 07:58:30;;;;;;;4.20;1.17;;;18.70;52.60;;;;;;5088021;28;20109;-46
2020/12/16 08:01:07;;;;;;;5.78;1.83;;;18.70;52.60;;;;;;5089095;28;20051;-45
2020/12/16 08:03:34;;;;;;;2.00;1.20;;;18.70;52.60;;;;;;5088358;28;20036;-46
2020/12/16 08:06:02;;;;;;;2.08;1.20;;;18.70;52.70;;;;;;5090174;28;20048;-48
2020/12/16 08:08:29;;;;;;;3.72;1.20;;;18.70;52.60;;;;;;5088016;28;20055;-49
2020/12/16 08:10:56;;;;;;;2.75;1.52;;;18.70;52.50;;;;;;5086804;28;20408;-47
2020/12/16 08:13:25;;;;;;;1.83;1.42;;;18.70;52.50;;;;;;5087466;28;20528;-45
2020/12/16 08:15:53;;;;;;;2.05;1.27;;;18.70;52.50;;;;;;5088309;28;20040;-46
2020/12/16 08:18:20;;;;;;;4.53;1.63;;;18.70;52.50;;;;;;5088346;28;20048;-47
2020/12/16 08:20:47;;;;;;;3.60;1.48;;;18.70;52.50;;;;;;5089547;28;20044;-46
2020/12/16 08:23:14;;;;;;;1.60;0.88;;;18.70;52.50;;;;;;5087752;28;20507;-44
2020/12/16 08:25:43;;;;;;;3.40;1.02;;;18.70;52.50;;;;;;5088209;28;20075;-46
2020/12/16 08:28:10;;;;;;;3.85;1.50;;;18.70;52.50;;;;;;5088151;28;20051;-50
2020/12/16 08:30:39;;;;;;;1.98;1.52;;;18.70;52.50;;;;;;5088506;28;20061;-45
2020/12/16 08:33:07;;;;;;;4.25;1.40;;;18.70;52.50;;;;;;5089880;28;20048;-47
2020/12/16 08:35:37;;;;;;;2.25;1.13;;;18.70;52.40;;;;;;5087449;28;20036;-48
2020/12/16 08:38:05;;;;;;;1.30;1.20;;;18.70;52.30;;;;;;5085465;28;20412;-47
2020/12/16 08:40:37;;;;;;;1.90;1.55;;;18.70;52.20;;;;;;5087171;28;20467;-45
2020/12/16 08:43:17;;;;;;;0.73;0.73;;;18.70;52.10;;;;;;5087777;28;20499;-47
2020/12/16 08:45:46;;;;;;;1.25;0.82;;;18.70;52.10;;;;;;5086935;28;20040;-45
2020/12/16 08:48:12;;;;;;;1.08;1.02;;;18.70;52.10;;;;;;5088141;28;20047;-48
2020/12/16 08:50:40;;;;;;;2.35;1.30;;;18.70;52.00;;;;;;5088184;28;20048;-46
2020/12/16 08:53:07;;;;;;;0.85;0.50;;;18.70;52.00;;;;;;5086919;28;20678;-48
2020/12/16 08:55:37;;;;;;;3.60;1.25;;;18.70;52.00;;;;;;5083672;28;20621;-46
2020/12/16 08:58:04;;;;;;;1.55;1.45;;;18.70;52.00;;;;;;5082564;28;20082;-51
2020/12/16 09:00:33;;;;;;;4.00;1.33;;;18.70;52.00;;;;;;5085599;28;20040;-49
2020/12/16 09:03:04;;;;;;;3.45;1.65;;;18.70;52.10;;;;;;5088966;28;20048;-46
2020/12/16 09:05:33;;;;;;;2.25;0.80;;;18.70;52.10;;;;;;5086101;28;20048;-46
2020/12/16 09:08:08;;;;;;;2.65;1.38;;;18.60;52.10;;;;;;5057080;28;20743;-49
2020/12/16 09:10:35;;;;;;;2.08;1.70;;;18.70;52.20;;;;;;5063871;28;20044;-48
2020/12/16 09:13:09;;;;;;;2.33;1.00;;;18.70;52.20;;;;;;5070548;28;20048;-44
2020/12/16 09:15:37;;;;;;;0.80;0.80;;;18.70;52.20;;;;;;5066389;28;20064;-48
2020/12/16 09:18:05;;;;;;;3.25;1.15;;;18.70;52.30;;;;;;5065644;28;20068;-53
2020/12/16 09:20:32;;;;;;;3.60;1.38;;;18.70;52.60;;;;;;5064884;28;20044;-58
2020/12/16 09:22:59;;;;;;;1.20;0.43;;;18.70;52.70;;;;;;5065829;28;20657;-48
2020/12/16 09:25:25;;;;;;;3.17;1.27;;;18.70;52.80;;;;;;5072665;28;20052;-47
2020/12/16 09:27:53;;;;;;;1.42;0.80;;;18.70;52.80;;;;;;5074643;28;20128;-49
2020/12/16 09:30:27;;;;;;;4.20;1.95;;;18.70;52.70;;;;;;5066473;28;20047;-47
2020/12/16 09:32:55;;;;;;;3.65;0.70;;;18.70;52.70;;;;;;5066704;28;20073;-48
2020/12/16 09:35:24;;;;;;;1.40;0.93;;;18.70;52.70;;;;;;5066107;28;20041;-46
2020/12/16 09:37:51;;;;;;;1.95;0.93;;;18.70;52.70;;;;;;5065802;28;20052;-44
2020/12/16 09:40:22;;;;;;;3.10;1.30;;;18.70;52.70;;;;;;5058848;28;20049;-43
2020/12/16 09:42:57;;;;;;;1.25;1.10;;;18.70;52.70;;;;;;5065705;28;20496;-44
2020/12/16 09:45:25;;;;;;;2.37;1.23;;;18.80;52.70;;;;;;5067107;28;20067;-47
2020/12/16 09:47:52;;;;;;;2.90;1.10;;;18.70;52.60;;;;;;5065722;28;20062;-42
2020/12/16 09:50:26;;;;;;;11.23;1.27;;;18.70;52.60;;;;;;5064788;28;20048;-42
2020/12/16 09:52:57;;;;;;;2.13;1.10;;;18.70;52.60;;;;;;5065977;28;20071;-44
2020/12/16 09:55:24;;;;;;;2.85;1.30;;;18.70;52.60;;;;;;5064007;28;20053;-52
2020/12/16 09:58:01;;;;;;;1.02;0.50;;;18.70;52.60;;;;;;5066299;28;20563;-51
2020/12/16 10:00:29;;;;;;;1.63;1.25;;;18.80;52.60;;;;;;5058007;28;20045;-47
2020/12/16 10:02:57;;;;;;;4.13;0.98;;;18.70;52.60;;;;;;5069897;28;20495;-46
2020/12/16 10:05:24;;;;;;;1.75;1.00;;;18.70;52.60;;;;;;5061567;28;20510;-46
2020/12/16 10:07:51;;;;;;;7.82;1.40;;;18.70;52.60;;;;;;5084842;28;20423;-46
2020/12/16 10:10:18;;;;;;;4.05;1.50;;;18.70;52.60;;;;;;5086780;28;20828;-46
2020/12/16 10:12:45;;;;;;;1.02;0.45;;;18.80;52.60;;;;;;5090464;28;20040;-45
2020/12/16 10:15:12;;;;;;;4.00;0.82;;;18.80;52.50;;;;;;5091082;28;20048;-49
2020/12/16 10:17:38;;;;;;;5.65;0.98;;;18.80;52.50;;;;;;5090415;28;20044;-47
2020/12/16 10:20:05;;;;;;;2.88;1.30;;;18.80;52.50;;;;;;5089710;28;20757;-46
2020/12/16 10:22:33;;;;;;;1.52;0.50;;;18.80;52.50;;;;;;5089024;28;20044;-53
2020/12/16 10:25:00;;;;;;;4.43;1.00;;;18.80;52.60;;;;;;5085389;28;20070;-48
2020/12/16 10:27:28;;;;;;;2.00;0.82;;;18.80;52.50;;;;;;5089448;28;20040;-46
2020/12/16 10:29:56;;;;;;;1.45;1.08;;;18.80;52.50;;;;;;5089708;28;20051;-48
2020/12/16 10:32:23;;;;;;;4.32;0.43;;;18.80;52.50;;;;;;5087088;28;20127;-44
2020/12/16 10:34:52;;;;;;;3.53;0.80;;;18.80;52.50;;;;;;5085178;28;20101;-45
2020/12/16 10:37:19;;;;;;;7.30;0.50;;;18.80;52.40;;;;;;5089362;28;20112;-43
2020/12/16 10:39:46;;;;;;;0.90;0.90;;;18.80;52.40;;;;;;5088925;28;20044;-44
2020/12/16 10:42:13;;;;;;;2.63;1.27;;;18.80;52.50;;;;;;5090336;28;20043;-44
2020/12/16 10:44:39;;;;;;;3.80;1.17;;;18.80;52.50;;;;;;5089751;28;20515;-46
2020/12/16 10:47:07;;;;;;;6.80;1.23;;;18.80;52.60;;;;;;5089031;28;20047;-44
2020/12/16 10:49:34;;;;;;;9.18;1.08;;;18.80;52.60;;;;;;5086237;28;20048;-44
2020/12/16 10:52:05;;;;;;;3.03;0.57;;;18.80;52.60;;;;;;5089293;28;20115;-45
2020/12/16 10:54:32;;;;;;;4.13;0.88;;;18.80;52.60;;;;;;5089352;28;20127;-44
2020/12/16 10:57:00;;;;;;;4.57;1.45;;;18.80;52.60;;;;;;5090999;28;20523;-43
2020/12/16 10:59:29;;;;;;;2.88;1.33;;;18.80;52.60;;;;;;5088567;28;20051;-44
2020/12/16 11:01:57;;;;;;;4.03;1.20;;;18.80;52.60;;;;;;5088042;28;20040;-48
2020/12/16 11:04:23;;;;;;;1.67;0.98;;;18.80;52.60;;;;;;5085401;28;20527;-43
2020/12/16 11:06:51;;;;;;;1.88;1.45;;;18.80;52.60;;;;;;5087298;28;20515;-44
2020/12/16 11:09:19;;;;;;;1.23;0.88;;;18.80;52.60;;;;;;5087512;28;20040;-46
2020/12/16 11:11:48;;;;;;;3.53;0.90;;;18.80;52.70;;;;;;5089114;28;20128;-44
2020/12/16 11:14:15;;;;;;;2.90;1.13;;;18.80;52.70;;;;;;5087103;28;20479;-46
2020/12/16 11:16:42;;;;;;;1.40;1.10;;;18.80;52.70;;;;;;5087918;28;21565;-43
2020/12/16 11:19:10;;;;;;;1.40;0.93;;;18.80;52.70;;;;;;5096684;28;20047;-44
2020/12/16 11:21:39;;;;;;;2.83;0.70;;;18.80;52.70;;;;;;5087876;28;20047;-43
2020/12/16 11:24:06;;;;;;;2.22;0.63;;;18.80;52.70;;;;;;5089274;28;20093;-45
2020/12/16 11:26:37;;;;;;;2.58;1.13;;;18.80;52.80;;;;;;5087489;28;20043;-46
2020/12/16 11:29:04;;;;;;;3.08;0.90;;;18.90;52.90;;;;;;5086840;28;20530;-44
2020/12/16 11:31:30;;;;;;;1.90;0.70;;;18.80;52.80;;;;;;5085543;28;20040;-46
2020/12/16 11:33:57;;;;;;;2.85;1.27;;;18.90;52.90;;;;;;5086066;28;20087;-44
2020/12/16 11:36:25;;;;;;;7.78;0.90;;;18.90;52.80;;;;;;5087008;28;20051;-43
2020/12/16 11:38:51;;;;;;;1.30;0.98;;;18.80;52.80;;;;;;5088283;28;20040;-44
2020/12/16 11:41:18;;;;;;;2.67;0.70;;;18.90;52.90;;;;;;5086431;28;20119;-44
2020/12/16 11:43:44;;;;;;;10.18;0.93;;;18.90;53.00;;;;;;5087610;28;20051;-44
2020/12/16 11:46:11;;;;;;;9.68;1.00;;;18.90;53.00;;;;;;5087288;28;20044;-44
2020/12/16 11:48:37;;;;;;;3.75;0.82;;;18.90;53.10;;;;;;5087319;28;20541;-43
2020/12/16 11:51:04;;;;;;;2.05;0.80;;;18.90;53.00;;;;;;5086380;28;20415;-49
2020/12/16 11:53:31;;;;;;;1.20;0.52;;;18.90;53.00;;;;;;5086456;28;20090;-44
2020/12/16 11:55:59;;;;;;;2.65;0.77;;;18.90;53.00;;;;;;5086662;28;20044;-46
2020/12/16 11:58:28;;;;;;;1.77;0.32;;;18.90;53.10;;;;;;5087220;28;20063;-43
2020/12/16 12:00:54;;;;;;;1.77;0.65;;;18.90;53.00;;;;;;5087743;28;20064;-43
2020/12/16 12:03:21;;;;;;;2.63;0.60;;;18.90;53.00;;;;;;5087582;28;20051;-46
2020/12/16 12:05:47;;;;;;;1.30;0.75;;;18.90;53.00;;;;;;5086655;28;20036;-46
2020/12/16 12:08:14;;;;;;;0.93;0.85;;;18.90;53.00;;;;;;5087420;28;20043;-43
2020/12/16 12:10:41;;;;;;;0.88;0.50;;;18.90;53.00;;;;;;5087607;28;20063;-44
2020/12/16 12:13:08;;;;;;;1.17;0.40;;;18.90;53.00;;;;;;5085462;28;20534;-51
2020/12/16 12:15:34;;;;;;;1.73;0.40;;;18.90;53.00;;;;;;5085465;28;20456;-44
2020/12/16 12:18:01;;;;;;;2.53;1.10;;;19.00;53.10;;;;;;5088674;28;20044;-45
2020/12/16 12:20:27;;;;;;;2.92;0.82;;;19.00;53.20;;;;;;5086021;28;20058;-44
2020/12/16 12:22:54;;;;;;;1.33;0.40;;;19.00;53.20;;;;;;5085871;28;20063;-47
2020/12/16 12:25:20;;;;;;;1.98;0.93;;;19.00;53.20;;;;;;5086933;28;20134;-46
2020/12/16 12:27:48;;;;;;;1.38;0.50;;;19.00;53.30;;;;;;5087643;28;20071;-47
2020/12/16 12:30:14;;;;;;;1.17;0.50;;;19.00;53.30;;;;;;5087423;28;20048;-46
2020/12/16 12:32:41;;;;;;;1.52;0.50;;;19.00;53.40;;;;;;5087578;28;20075;-43
2020/12/16 12:35:07;;;;;;;1.63;0.85;;;19.10;53.40;;;;;;5087408;28;20063;-43
2020/12/16 12:37:34;;;;;;;0.80;0.77;;;19.10;53.40;;;;;;5087441;28;20043;-43
2020/12/16 12:40:00;;;;;;;1.95;0.60;;;19.10;53.30;;;;;;5087581;28;20072;-43
2020/12/16 12:42:27;;;;;;;2.13;1.33;;;19.10;53.20;;;;;;5083850;28;20519;-43
2020/12/16 12:44:55;;;;;;;1.15;0.90;;;19.20;53.40;;;;;;5086539;28;20085;-44
2020/12/16 12:47:21;;;;;;;2.35;0.60;;;19.20;53.30;;;;;;5086192;28;20075;-49
2020/12/16 12:49:48;;;;;;;1.02;0.60;;;19.20;53.30;;;;;;5086439;28;20052;-44
2020/12/16 12:52:14;;;;;;;1.40;0.63;;;19.20;53.30;;;;;;5079648;28;20146;-44
2020/12/16 12:54:41;;;;;;;1.70;0.70;;;19.20;53.20;;;;;;5087067;28;20044;-43
2020/12/16 12:57:08;;;;;;;1.40;0.80;;;19.20;53.80;;;;;;5088176;28;20086;-44
2020/12/16 12:59:35;;;;;;;0.80;0.50;;;19.30;53.20;;;;;;5086035;28;20071;-43
2020/12/16 13:02:02;;;;;;;3.58;0.82;;;19.30;53.10;;;;;;5086773;28;20076;-44